Garbutt, NY

4:04 PM EST on February 25, 2017 (GMT -0500)
| | Change Station
Active Advisory: Wind Advisory

Elev -9999 ft 0.00 °N, 0.00 °E | Updated 0 second ago

Overcast
Overcast
°F
Feels Like °F
N
Wind Variable Wind from North
Gusts mph

Today
High -- | Low -- °F
--% Chance of Precip.
Yesterday
High -- | Low -- °F
Precip. -- in
Pressure 29.56 in
Visibility 10.0 miles
Clouds Overcast 4000 ft
Dew Point Not available.
Humidity Not available.
Rainfall --
Snow Depth Not available.
6:53 AM 5:55 PM
Waning Crescent, 1% visible
METAR KROC 252054Z 27024G35KT 10SM OVC040 06/M02 A2955 RMK AO2 PK WND 27035/2008 SLP009 60000 T00611017 51020
Pressure 29.56 in
Visibility 10.0 miles
Clouds Overcast 4000 ft
Dew Point Not available.
Humidity Not available.
Rainfall --
Snow Depth Not available.
6:53 AM 5:55 PM
Waning Crescent, 1% visible
METAR KROC 252054Z 27024G35KT 10SM OVC040 06/M02 A2955 RMK AO2 PK WND 27035/2008 SLP009 60000 T00611017 51020

Get Your Daily Forecast Email!

Thanks for signing up!

Be on the lookout for a verification email in your inbox.

You'll start receiving the daily forecast at 8 AM.

×

10-Day Weather Forecast

Almanac

Astronomy

Feb. 25, 2017 Rise Set
Actual Time
Civil Twilight
Nautical Twilight
Astronomical Twilight
Moon
Length of Visible Light
Length of Day
Tomorrow will be .
, % of the Moon is Illuminated

Today's Extremes

State Highs State Lows

Community

WunderPhotos

Upload Photos

1,962,540 photos uploaded!

WunderBlog® & News

Nearby

Air Quality

  Air Quality AQ Index Pollutant
Not available.

Snow Depth

Station Depth Elevation

Earthquake Activity

City Distance Mag. Time & Date
Minimum magnitude displayed is 2.5.

Coastal Water Temperatures

Place Temperature

Stations

Nearby Weather Stations

Station Location Temp. Windchill Dew Point Humidity Wind Precip. Elev Updated Type
                   

Watches & Warnings

Wind Advisory
Issued: 2:09 PM EST Feb. 25, 2017 – National Weather Service

... Wind Advisory remains in effect until 10 PM EST this evening...

* locations... the Chautauqua County shoreline, all of the
Niagara Frontier, and Monroe County.

* Timing... through late this evening.

* Winds... west 20 to 30 mph with gusts up to 50 mph.

* Impacts... winds of this magnitude will result in a few tree
limbs coming down and isolated power outages. Travel in high
profile vehicles will be difficult at times in open areas.

Precautionary/preparedness actions...

A Wind Advisory is issued when sustained winds are forecast to be
31 to 39 mph or gusts will range between 46 and 57 mph. Winds of
these magnitudes may cause minor property damage without extra
precautions. Motorists in high profile vehicles should use
caution until the winds subside. Stay tuned to NOAA Weather Radio
and other radio and TV stations for further details or updates.